createdAt,value
2023-04-09T00:01:17.060Z,66.58
2023-04-09T00:03:49.451Z,66.48
2023-04-09T00:06:21.722Z,66.57
2023-04-09T00:08:54.233Z,66.69
2023-04-09T00:11:27.002Z,66.91
2023-04-09T00:14:00.105Z,67.07
2023-04-09T00:16:32.804Z,67.44
2023-04-09T00:19:06.004Z,67.29
2023-04-09T00:21:38.158Z,67.15
2023-04-09T00:24:10.784Z,67.40
2023-04-09T00:26:43.059Z,67.34
2023-04-09T00:29:15.613Z,67.14
2023-04-09T00:31:48.003Z,66.94
2023-04-09T00:34:20.320Z,66.76
2023-04-09T00:36:52.674Z,66.89
2023-04-09T00:39:25.012Z,66.81
2023-04-09T00:42:02.712Z,67.00
2023-04-09T00:44:35.889Z,67.10
2023-04-09T00:47:20.127Z,67.22
2023-04-09T00:49:53.160Z,67.61
2023-04-09T00:52:25.595Z,67.79
2023-04-09T00:54:58.325Z,67.91
2023-04-09T00:57:30.939Z,68.02
2023-04-09T01:00:04.149Z,67.86
2023-04-09T01:02:37.203Z,67.93
2023-04-09T01:05:10.503Z,67.83
2023-04-09T01:07:55.916Z,67.78
2023-04-09T01:10:37.026Z,67.95
2023-04-09T01:13:17.474Z,68.02
2023-04-09T01:15:55.199Z,67.87
2023-04-09T01:18:32.654Z,67.80
2023-04-09T01:21:11.172Z,67.46
2023-04-09T01:23:49.170Z,67.59
2023-04-09T01:26:32.752Z,67.47
2023-04-09T01:29:07.001Z,67.30
2023-04-09T01:31:43.167Z,67.38
2023-04-09T01:34:17.688Z,67.35
2023-04-09T01:36:55.160Z,67.21
2023-04-09T01:39:28.326Z,67.74
2023-04-09T01:42:02.212Z,67.83
2023-04-09T01:44:35.619Z,68.06
2023-04-09T01:47:08.290Z,68.19
2023-04-09T01:49:44.529Z,67.97
2023-04-09T01:52:17.191Z,67.82
2023-04-09T01:54:49.547Z,67.96
2023-04-09T01:57:21.735Z,68.21
2023-04-09T01:59:55.575Z,68.29
2023-04-09T02:02:37.468Z,68.40
2023-04-09T02:05:13.154Z,68.49
2023-04-09T02:07:48.532Z,68.46
2023-04-09T02:10:21.789Z,68.50
2023-04-09T02:12:56.496Z,68.64
2023-04-09T02:15:30.022Z,68.64
2023-04-09T02:18:02.569Z,68.39
2023-04-09T02:20:34.918Z,68.55
2023-04-09T02:23:07.128Z,68.40
2023-04-09T02:25:39.402Z,68.15
2023-04-09T02:28:11.704Z,68.51
2023-04-09T02:30:44.247Z,68.53
2023-04-09T02:33:16.473Z,68.38
2023-04-09T02:35:48.808Z,68.44
2023-04-09T02:38:21.082Z,68.58
2023-04-09T02:40:53.306Z,68.64
2023-04-09T02:43:25.879Z,68.76
2023-04-09T02:45:58.318Z,68.84
2023-04-09T02:48:30.761Z,68.92
2023-04-09T02:51:02.913Z,68.95
2023-04-09T02:53:35.608Z,68.91
2023-04-09T02:56:08.735Z,68.94
2023-04-09T02:58:40.893Z,69.17
2023-04-09T03:01:13.265Z,69.28
2023-04-09T03:03:45.633Z,69.35
2023-04-09T03:06:18.611Z,69.21
2023-04-09T03:08:51.351Z,69.45
2023-04-09T03:11:24.047Z,69.34
2023-04-09T03:13:56.292Z,69.41
2023-04-09T03:16:29.043Z,69.53
2023-04-09T03:19:01.529Z,69.66
2023-04-09T03:21:33.856Z,69.60
2023-04-09T03:24:06.484Z,69.82
2023-04-09T03:26:39.476Z,70.03
2023-04-09T03:29:11.806Z,70.19
2023-04-09T03:31:44.229Z,70.61
2023-04-09T03:34:16.742Z,70.64
2023-04-09T03:36:50.445Z,70.58
2023-04-09T03:39:32.397Z,70.52
2023-04-09T03:42:04.665Z,70.59
2023-04-09T03:44:45.600Z,70.54
2023-04-09T03:47:22.759Z,70.75
2023-04-09T03:49:55.441Z,70.91
2023-04-09T03:52:30.971Z,70.91
2023-04-09T03:55:11.819Z,71.02
2023-04-09T03:57:43.861Z,70.97
2023-04-09T04:00:20.118Z,70.76
2023-04-09T04:03:14.794Z,70.67
2023-04-09T04:06:07.140Z,70.26
2023-04-09T04:09:14.456Z,70.88
2023-04-09T04:11:52.661Z,71.16
2023-04-09T04:14:25.594Z,71.44
2023-04-09T04:17:02.926Z,71.55
2023-04-09T04:19:35.510Z,71.30
2023-04-09T04:22:07.780Z,71.54
2023-04-09T04:24:41.488Z,71.54
2023-04-09T04:27:14.161Z,71.42
2023-04-09T04:29:46.426Z,71.32
2023-04-09T04:32:39.055Z,71.38
2023-04-09T04:35:14.463Z,71.53
2023-04-09T04:37:46.780Z,71.58
2023-04-09T04:40:19.954Z,71.62
2023-04-09T04:42:53.115Z,71.97
2023-04-09T04:45:25.575Z,71.81
2023-04-09T04:48:03.315Z,71.84
2023-04-09T04:50:36.231Z,72.01
2023-04-09T04:53:12.107Z,72.90
2023-04-09T04:55:52.234Z,72.98
2023-04-09T04:58:29.473Z,73.27
2023-04-09T05:01:01.673Z,73.32
2023-04-09T05:03:35.269Z,73.66
2023-04-09T05:06:26.913Z,73.80
2023-04-09T05:09:01.614Z,74.14
2023-04-09T05:11:39.955Z,74.08
2023-04-09T05:14:14.717Z,74.13
2023-04-09T05:16:49.708Z,74.60
2023-04-09T05:19:23.371Z,75.11
2023-04-09T05:22:00.568Z,75.55
2023-04-09T05:24:33.529Z,75.82
2023-04-09T05:27:06.300Z,76.15
2023-04-09T05:29:39.136Z,76.09
2023-04-09T05:32:12.679Z,76.22
2023-04-09T05:34:45.504Z,76.01
2023-04-09T05:37:17.727Z,76.09
2023-04-09T05:39:53.585Z,75.77
2023-04-09T05:42:25.763Z,75.80
2023-04-09T05:45:06.883Z,76.81
2023-04-09T05:47:39.296Z,76.76
2023-04-09T05:50:19.568Z,76.90
2023-04-09T05:52:52.245Z,76.78
2023-04-09T05:55:25.536Z,77.03
2023-04-09T05:58:04.661Z,77.26
2023-04-09T06:00:37.848Z,77.32
2023-04-09T06:03:10.491Z,77.41
2023-04-09T06:05:43.108Z,77.65
2023-04-09T06:08:15.355Z,77.05
2023-04-09T06:10:47.566Z,77.56
2023-04-09T06:13:19.941Z,77.70
2023-04-09T06:15:52.802Z,77.88
2023-04-09T06:18:25.827Z,77.81
2023-04-09T06:21:06.562Z,78.03
2023-04-09T06:23:39.691Z,78.06
2023-04-09T06:26:12.072Z,78.02
2023-04-09T06:28:44.478Z,78.50
2023-04-09T06:31:16.819Z,78.62
2023-04-09T06:33:48.965Z,78.36
2023-04-09T06:36:21.376Z,78.80
2023-04-09T06:38:53.546Z,78.27
2023-04-09T06:41:26.436Z,78.77
2023-04-09T06:43:58.702Z,78.58
2023-04-09T06:46:30.968Z,78.30
2023-04-09T06:49:03.040Z,78.64
2023-04-09T06:51:35.535Z,78.69
2023-04-09T06:54:08.464Z,78.07
2023-04-09T06:56:40.556Z,77.99
2023-04-09T06:59:12.896Z,77.99
2023-04-09T07:01:46.101Z,77.73
2023-04-09T07:04:18.647Z,77.92
2023-04-09T07:06:52.852Z,78.18
2023-04-09T07:09:25.287Z,78.18
2023-04-09T07:11:57.261Z,78.30
2023-04-09T07:14:29.381Z,78.28
2023-04-09T07:17:01.530Z,77.92
2023-04-09T07:19:34.063Z,78.03
2023-04-09T07:22:06.547Z,77.83
2023-04-09T07:24:39.264Z,78.12
2023-04-09T07:27:11.485Z,77.68
2023-04-09T07:29:46.709Z,77.42
2023-04-09T07:32:19.124Z,77.23
2023-04-09T07:34:52.136Z,76.91
2023-04-09T07:37:24.372Z,76.30
2023-04-09T07:39:56.907Z,76.11
2023-04-09T07:42:29.070Z,75.89
2023-04-09T07:45:01.344Z,76.26
2023-04-09T07:47:33.876Z,76.40
2023-04-09T07:50:07.770Z,75.99
2023-04-09T07:52:39.986Z,76.05
2023-04-09T07:55:12.729Z,76.36
2023-04-09T07:57:45.333Z,76.37
2023-04-09T08:00:19.293Z,76.44
2023-04-09T08:02:52.890Z,76.23
2023-04-09T08:05:25.473Z,75.81
2023-04-09T08:07:57.716Z,76.24
2023-04-09T08:10:30.020Z,75.96
2023-04-09T08:13:02.757Z,75.86
2023-04-09T08:15:35.285Z,75.94
2023-04-09T08:18:07.877Z,76.09
2023-04-09T08:20:45.159Z,75.45
2023-04-09T08:23:17.941Z,74.75
2023-04-09T08:25:50.464Z,74.51
2023-04-09T08:28:22.594Z,74.32
2023-04-09T08:30:54.887Z,74.53
2023-04-09T08:33:27.064Z,74.42
2023-04-09T08:36:00.844Z,74.52
2023-04-09T08:38:34.878Z,73.87
2023-04-09T08:41:07.483Z,74.01
2023-04-09T08:43:56.835Z,73.99
2023-04-09T08:46:32.030Z,73.69
2023-04-09T08:49:05.125Z,73.76
2023-04-09T08:51:37.405Z,73.31
2023-04-09T08:54:09.940Z,72.76
2023-04-09T08:56:42.445Z,72.54
2023-04-09T08:59:19.301Z,72.45
2023-04-09T09:02:07.838Z,72.91
2023-04-09T09:04:51.105Z,76.64
2023-04-09T09:07:23.230Z,77.16
2023-04-09T09:09:58.764Z,72.59
2023-04-09T09:12:39.711Z,71.64
2023-04-09T09:15:28.917Z,71.30
2023-04-09T09:18:02.072Z,71.26
2023-04-09T09:20:35.257Z,70.79
2023-04-09T09:23:08.837Z,70.32
2023-04-09T09:25:43.454Z,70.45
2023-04-09T09:28:14.476Z,70.87
2023-04-09T09:30:49.196Z,70.82
2023-04-09T09:33:21.809Z,70.81
2023-04-09T09:35:57.792Z,70.29
2023-04-09T09:38:30.571Z,70.54
2023-04-09T09:41:19.642Z,70.74
2023-04-09T09:43:52.422Z,70.56
2023-04-09T09:46:26.417Z,70.49
2023-04-09T09:48:59.097Z,70.47
2023-04-09T09:51:33.137Z,70.52
2023-04-09T09:54:08.099Z,70.32
2023-04-09T09:56:39.960Z,70.94
2023-04-09T09:59:18.011Z,70.38
2023-04-09T10:01:53.077Z,70.07
2023-04-09T10:04:30.060Z,70.07
2023-04-09T10:07:03.983Z,69.39
2023-04-09T10:09:38.944Z,69.55
2023-04-09T10:12:12.096Z,69.99
2023-04-09T10:14:44.961Z,78.66
2023-04-09T10:17:17.498Z,88.53
2023-04-09T10:20:00.889Z,88.38
2023-04-09T10:22:36.282Z,84.53
2023-04-09T10:25:10.153Z,74.17
2023-04-09T10:27:44.831Z,72.58
2023-04-09T10:30:37.833Z,72.46
2023-04-09T10:33:17.550Z,72.07
2023-04-09T10:35:50.585Z,71.06
2023-04-09T10:38:37.257Z,70.22
2023-04-09T10:41:22.790Z,70.39
2023-04-09T10:43:55.021Z,71.39
2023-04-09T10:46:31.866Z,69.87
2023-04-09T10:49:19.623Z,70.48
2023-04-09T10:51:54.477Z,70.25
2023-04-09T10:54:47.228Z,71.21
2023-04-09T10:57:21.932Z,70.79
2023-04-09T10:59:56.033Z,70.61
2023-04-09T11:03:00.693Z,70.23
2023-04-09T11:05:38.176Z,69.85
2023-04-09T11:08:23.591Z,69.70
2023-04-09T11:14:03.338Z,69.51
2023-04-09T11:16:36.894Z,69.49
2023-04-09T11:19:10.498Z,69.70
2023-04-09T11:21:46.371Z,69.71
2023-04-09T11:24:19.908Z,69.72
2023-04-09T11:26:52.216Z,69.01
2023-04-09T11:29:25.439Z,69.77
2023-04-09T11:31:57.881Z,69.70
2023-04-09T11:34:32.197Z,70.14
2023-04-09T11:37:09.242Z,69.98
2023-04-09T11:39:42.563Z,69.94
2023-04-09T11:42:18.322Z,69.97
2023-04-09T11:44:51.468Z,69.19
2023-04-09T11:47:24.950Z,69.94
2023-04-09T11:49:57.179Z,69.88
2023-04-09T11:52:31.778Z,69.71
2023-04-09T11:55:05.001Z,69.22
2023-04-09T11:57:44.159Z,69.08
2023-04-09T12:00:20.716Z,69.31
2023-04-09T12:03:02.859Z,69.17
2023-04-09T12:05:37.972Z,68.91
2023-04-09T12:08:12.088Z,68.30
2023-04-09T12:10:45.559Z,67.74
2023-04-09T12:13:17.897Z,67.28
2023-04-09T12:15:52.617Z,67.36
2023-04-09T12:18:25.069Z,67.25
2023-04-09T12:20:57.532Z,67.88
2023-04-09T12:23:31.480Z,67.23
2023-04-09T12:26:03.884Z,67.51
2023-04-09T12:28:36.393Z,67.98
2023-04-09T12:31:12.930Z,67.83
2023-04-09T12:33:45.332Z,67.95
2023-04-09T12:36:17.826Z,67.62
2023-04-09T12:38:50.394Z,67.39
2023-04-09T12:41:22.941Z,67.36
2023-04-09T12:43:55.259Z,67.36
2023-04-09T12:46:28.501Z,67.33
2023-04-09T12:49:01.040Z,66.43
2023-04-09T12:51:33.604Z,66.00
2023-04-09T12:54:05.936Z,66.31
2023-04-09T12:56:38.266Z,66.28
2023-04-09T12:59:10.983Z,66.14
2023-04-09T13:01:43.522Z,66.20
2023-04-09T13:04:16.885Z,66.95
2023-04-09T13:06:50.310Z,66.71
2023-04-09T13:09:22.552Z,65.38
2023-04-09T13:11:54.670Z,65.33
2023-04-09T13:14:26.882Z,64.50
2023-04-09T13:16:59.373Z,63.64
2023-04-09T13:19:31.681Z,63.75
2023-04-09T13:22:06.346Z,64.38
2023-04-09T13:24:39.653Z,64.24
2023-04-09T13:27:12.012Z,64.83
2023-04-09T13:29:44.710Z,64.26
2023-04-09T13:32:18.401Z,64.71
2023-04-09T13:34:51.335Z,64.88
2023-04-09T13:37:23.875Z,64.77
2023-04-09T13:39:56.460Z,65.09
2023-04-09T13:42:28.973Z,65.02
2023-04-09T13:45:01.365Z,65.11
2023-04-09T13:47:33.964Z,65.22
2023-04-09T13:50:10.362Z,64.37
2023-04-09T13:52:43.176Z,64.40
2023-04-09T13:55:15.385Z,64.66
2023-04-09T13:57:47.612Z,64.87
2023-04-09T14:00:20.938Z,65.68
2023-04-09T14:02:53.204Z,65.63
2023-04-09T14:05:26.272Z,65.37
2023-04-09T14:07:58.947Z,65.39
2023-04-09T14:10:31.101Z,65.13
2023-04-09T14:13:06.522Z,65.94
2023-04-09T14:15:39.237Z,66.11
2023-04-09T14:18:11.740Z,66.67
2023-04-09T14:20:44.307Z,66.99
2023-04-09T14:23:16.612Z,66.41
2023-04-09T14:25:49.186Z,65.96
2023-04-09T14:28:21.262Z,65.28
2023-04-09T14:30:53.473Z,65.64
2023-04-09T14:33:25.517Z,66.02
2023-04-09T14:35:58.868Z,65.77
2023-04-09T14:38:31.564Z,65.53
2023-04-09T14:41:04.059Z,65.52
2023-04-09T14:43:36.313Z,65.78
2023-04-09T14:46:11.882Z,65.68
2023-04-09T14:48:44.235Z,65.05
2023-04-09T14:51:16.804Z,64.92
2023-04-09T14:53:48.921Z,65.53
2023-04-09T14:56:21.320Z,65.59
2023-04-09T14:58:54.142Z,65.93
2023-04-09T15:01:27.449Z,65.57
2023-04-09T15:04:00.686Z,66.03
2023-04-09T15:06:33.540Z,66.56
2023-04-09T15:09:06.161Z,66.54
2023-04-09T15:11:38.250Z,66.65
2023-04-09T15:14:11.162Z,67.21
2023-04-09T15:16:43.426Z,66.58
2023-04-09T15:19:15.684Z,66.49
2023-04-09T15:21:47.891Z,66.38
2023-04-09T15:24:20.557Z,66.36
2023-04-09T15:26:52.974Z,66.50
2023-04-09T15:29:25.050Z,66.45
2023-04-09T15:31:57.119Z,66.68
2023-04-09T15:34:29.860Z,66.54
2023-04-09T15:37:02.298Z,66.91
2023-04-09T15:39:35.257Z,67.39
2023-04-09T15:42:10.002Z,67.25
2023-04-09T15:44:42.976Z,68.12
2023-04-09T15:47:15.198Z,68.18
2023-04-09T15:49:47.317Z,68.37
2023-04-09T15:52:19.624Z,68.34
2023-04-09T15:54:51.975Z,68.22
2023-04-09T15:57:24.336Z,68.21
2023-04-09T15:59:56.528Z,68.48
2023-04-09T16:02:28.903Z,68.64
2023-04-09T16:05:01.494Z,68.68
2023-04-09T16:07:33.895Z,69.04
2023-04-09T16:10:07.396Z,69.09
2023-04-09T16:12:39.989Z,68.49
2023-04-09T16:15:13.351Z,68.17
2023-04-09T16:17:45.690Z,68.58
2023-04-09T16:20:18.251Z,68.73
2023-04-09T16:22:50.495Z,68.63
2023-04-09T16:25:24.448Z,69.24
2023-04-09T16:27:57.214Z,69.73
2023-04-09T16:30:31.292Z,69.93
2023-04-09T16:33:03.964Z,69.93
2023-04-09T16:35:39.326Z,69.67
2023-04-09T16:38:12.276Z,69.49
2023-04-09T16:40:44.941Z,70.13
2023-04-09T16:43:17.238Z,69.86
2023-04-09T16:45:49.482Z,69.78
2023-04-09T16:48:21.976Z,69.47
2023-04-09T16:50:54.353Z,70.11
2023-04-09T16:53:26.760Z,70.75
2023-04-09T16:55:59.165Z,70.69
2023-04-09T16:58:31.498Z,71.06
2023-04-09T17:01:03.764Z,71.29
2023-04-09T17:03:36.216Z,71.23
2023-04-09T17:06:08.863Z,70.98
2023-04-09T17:08:41.332Z,71.31
2023-04-09T17:11:17.249Z,71.31
2023-04-09T17:13:49.670Z,71.17
2023-04-09T17:16:22.009Z,71.70
2023-04-09T17:18:54.976Z,71.64
2023-04-09T17:21:27.541Z,71.42
2023-04-09T17:24:02.059Z,71.25
2023-04-09T17:26:34.334Z,71.01
2023-04-09T17:29:06.786Z,70.93
2023-04-09T17:31:39.404Z,71.05
2023-04-09T17:34:11.951Z,71.08
2023-04-09T17:36:47.042Z,71.40
2023-04-09T17:39:19.500Z,71.31
2023-04-09T17:41:53.653Z,71.25
2023-04-09T17:44:26.250Z,71.30
2023-04-09T17:46:58.656Z,71.50
2023-04-09T17:49:33.248Z,71.44
2023-04-09T17:52:05.352Z,71.37
2023-04-09T17:54:38.730Z,71.56
2023-04-09T17:57:11.115Z,71.54
2023-04-09T17:59:43.435Z,71.87
2023-04-09T18:02:15.766Z,71.82
2023-04-09T18:04:48.818Z,71.53
2023-04-09T18:07:21.359Z,71.66
2023-04-09T18:09:53.720Z,71.54
2023-04-09T18:12:26.382Z,71.63
2023-04-09T18:14:58.818Z,71.79
2023-04-09T18:17:31.103Z,71.58
2023-04-09T18:20:03.398Z,71.51
2023-04-09T18:22:35.995Z,71.42
2023-04-09T18:25:09.616Z,71.35
2023-04-09T18:27:41.835Z,71.68
2023-04-09T18:30:15.145Z,71.91
2023-04-09T18:32:48.292Z,71.92
2023-04-09T18:35:21.015Z,72.00
2023-04-09T18:37:53.387Z,71.88
2023-04-09T18:40:25.810Z,71.68
2023-04-09T18:42:58.353Z,71.63
2023-04-09T18:45:30.797Z,71.67
2023-04-09T18:48:03.133Z,71.84
2023-04-09T18:50:35.560Z,72.05
2023-04-09T18:53:07.924Z,72.41
2023-04-09T18:55:40.536Z,72.48
2023-04-09T18:58:15.812Z,72.62
2023-04-09T19:00:50.764Z,72.87
2023-04-09T19:03:23.935Z,72.77
2023-04-09T19:05:56.410Z,72.89
2023-04-09T19:08:32.343Z,73.36
2023-04-09T19:11:04.598Z,73.38
2023-04-09T19:13:38.264Z,73.71
2023-04-09T19:16:11.446Z,74.02
2023-04-09T19:18:43.723Z,73.96
2023-04-09T19:21:17.887Z,73.97
2023-04-09T19:23:49.932Z,73.49
2023-04-09T19:26:22.308Z,73.45
2023-04-09T19:28:54.970Z,73.69
2023-04-09T19:31:27.630Z,73.64
2023-04-09T19:33:59.840Z,73.86
2023-04-09T19:36:32.363Z,73.98
2023-04-09T19:39:05.776Z,74.20
2023-04-09T19:41:38.230Z,74.21
2023-04-09T19:44:11.030Z,73.91
2023-04-09T19:46:43.231Z,73.80
2023-04-09T19:49:15.682Z,73.51
2023-04-09T19:51:48.042Z,73.46
2023-04-09T19:54:20.312Z,73.59
2023-04-09T19:56:52.361Z,73.66
2023-04-09T19:59:24.536Z,73.48
2023-04-09T20:01:57.279Z,73.65
2023-04-09T20:04:31.096Z,73.64
2023-04-09T20:07:04.278Z,73.64
2023-04-09T20:09:41.380Z,73.70
2023-04-09T20:12:13.979Z,73.50
2023-04-09T20:14:47.296Z,73.69
2023-04-09T20:17:20.812Z,73.53
2023-04-09T20:19:53.000Z,73.46
2023-04-09T20:22:25.191Z,73.59
2023-04-09T20:24:59.909Z,73.69
2023-04-09T20:27:31.408Z,73.68
2023-04-09T20:30:03.751Z,73.75
2023-04-09T20:32:36.820Z,73.52
2023-04-09T20:35:11.169Z,73.64
2023-04-09T20:37:44.172Z,73.64
2023-04-09T20:40:17.029Z,73.48
2023-04-09T20:42:49.979Z,73.68
2023-04-09T20:45:23.083Z,73.80
2023-04-09T20:47:55.169Z,73.85
2023-04-09T20:50:28.926Z,73.80
2023-04-09T20:53:01.566Z,73.79
2023-04-09T20:55:33.812Z,73.74
2023-04-09T20:58:06.411Z,73.73
2023-04-09T21:00:38.987Z,73.61
2023-04-09T21:03:11.280Z,73.71
2023-04-09T21:05:43.521Z,73.67
2023-04-09T21:08:16.209Z,73.71
2023-04-09T21:10:48.321Z,73.70
2023-04-09T21:13:20.841Z,74.12
2023-04-09T21:15:53.321Z,74.05
2023-04-09T21:18:25.605Z,73.97
2023-04-09T21:20:57.844Z,74.21
2023-04-09T21:23:30.545Z,73.97
2023-04-09T21:26:04.064Z,74.00
2023-04-09T21:28:36.550Z,73.85
2023-04-09T21:31:10.952Z,73.78
2023-04-09T21:33:43.383Z,73.71
2023-04-09T21:36:15.902Z,73.50
2023-04-09T21:38:48.094Z,73.36
2023-04-09T21:41:21.455Z,73.57
2023-04-09T21:43:53.875Z,73.26
2023-04-09T21:46:26.820Z,73.10
2023-04-09T21:48:58.936Z,73.13
2023-04-09T21:51:31.560Z,72.99
2023-04-09T21:54:07.862Z,72.93
2023-04-09T21:56:40.385Z,72.54
2023-04-09T21:59:12.972Z,72.32
2023-04-09T22:01:47.560Z,72.03
2023-04-09T22:04:21.842Z,72.09
2023-04-09T22:06:54.139Z,71.89
2023-04-09T22:09:26.464Z,72.04
2023-04-09T22:11:59.680Z,72.67
2023-04-09T22:14:32.730Z,72.96
2023-04-09T22:17:05.511Z,73.11
2023-04-09T22:19:37.784Z,73.23
2023-04-09T22:22:12.267Z,73.21
2023-04-09T22:24:44.912Z,73.36
2023-04-09T22:27:17.449Z,73.57
2023-04-09T22:29:49.555Z,73.43
2023-04-09T22:32:22.111Z,73.43
2023-04-09T22:34:54.460Z,73.51
2023-04-09T22:37:27.854Z,73.74
2023-04-09T22:40:00.909Z,73.57
2023-04-09T22:42:33.175Z,73.44
2023-04-09T22:45:06.151Z,73.45
2023-04-09T22:47:38.867Z,73.41
2023-04-09T22:50:14.055Z,72.98
2023-04-09T22:52:46.814Z,73.12
2023-04-09T22:55:19.211Z,73.12
2023-04-09T22:57:51.455Z,73.32
2023-04-09T23:00:23.861Z,72.35
2023-04-09T23:02:56.319Z,71.58
2023-04-09T23:05:28.739Z,72.29
2023-04-09T23:08:01.184Z,72.91
2023-04-09T23:10:34.452Z,73.13
2023-04-09T23:13:06.985Z,73.23
2023-04-09T23:15:39.112Z,73.20
2023-04-09T23:18:11.952Z,73.30
2023-04-09T23:20:44.195Z,73.28
2023-04-09T23:23:16.894Z,73.41
2023-04-09T23:25:49.006Z,73.08
2023-04-09T23:28:21.305Z,72.45
2023-04-09T23:30:53.423Z,72.45
2023-04-09T23:33:26.132Z,72.58
2023-04-09T23:35:58.239Z,72.81
2023-04-09T23:38:30.828Z,72.41
2023-04-09T23:41:03.200Z,72.36
2023-04-09T23:43:35.755Z,72.69
2023-04-09T23:46:08.514Z,73.03
2023-04-09T23:48:41.310Z,73.40
2023-04-09T23:51:19.686Z,73.22
2023-04-09T23:53:52.026Z,72.54
2023-04-09T23:56:25.152Z,71.52
2023-04-09T23:58:57.413Z,70.43
